Time;durP1;ratioP1;P1;durP2;ratioP2;P2;SDS_P1;SDS_P2;PMS_P1;PMS_P2;Temp;Humidity;BMP_temperature;BMP_pressure;BME280_temperature;BME280_humidity;BME280_pressure;Samples;Min_cycle;Max_cycle;Signal;HPM_P1;HPM_P2
2023/04/25 00:02:08;;;;;;;3.50;3.20;;;12.30;99.90;;;;;;5053077;28;20258;-77
2023/04/25 00:04:37;;;;;;;5.13;3.78;;;12.30;99.90;;;;;;5052676;28;20232;-77
2023/04/25 00:07:06;;;;;;;3.47;3.10;;;12.30;99.90;;;;;;5053488;28;20230;-77
2023/04/25 00:09:33;;;;;;;4.68;3.10;;;12.30;99.90;;;;;;5052152;28;20220;-76
2023/04/25 00:12:01;;;;;;;4.25;3.88;;;12.30;99.90;;;;;;5053323;28;20240;-77
2023/04/25 00:14:29;;;;;;;2.80;2.58;;;12.30;99.90;;;;;;5052716;28;20233;-75
2023/04/25 00:16:56;;;;;;;3.80;3.15;;;12.20;99.90;;;;;;5052090;28;20228;-77
2023/04/25 00:19:23;;;;;;;8.13;6.32;;;12.30;99.90;;;;;;5052306;28;20227;-75
2023/04/25 00:21:50;;;;;;;2.90;2.65;;;12.30;99.90;;;;;;5051650;28;20224;-76
2023/04/25 00:24:19;;;;;;;4.85;3.72;;;12.30;99.90;;;;;;5052384;28;20228;-76
2023/04/25 00:26:46;;;;;;;3.90;2.90;;;12.30;99.90;;;;;;5050794;28;20275;-76
2023/04/25 00:29:13;;;;;;;6.75;4.25;;;12.20;99.90;;;;;;5051859;28;20220;-76
2023/04/25 00:31:40;;;;;;;3.72;3.10;;;12.20;99.90;;;;;;5051160;28;20220;-76
2023/04/25 00:34:08;;;;;;;3.70;3.25;;;12.20;99.90;;;;;;5052738;28;20220;-76
2023/04/25 00:36:36;;;;;;;4.93;3.80;;;12.20;99.90;;;;;;5052380;28;20316;-76
2023/04/25 00:39:04;;;;;;;5.55;3.50;;;12.10;99.90;;;;;;5056100;28;20411;-76
2023/04/25 00:41:35;;;;;;;6.75;2.72;;;12.20;99.90;;;;;;5056655;28;20216;-77
2023/04/25 00:44:06;;;;;;;2.83;2.60;;;12.20;99.90;;;;;;5055715;28;20225;-76
2023/04/25 00:46:39;;;;;;;4.18;3.78;;;12.20;99.90;;;;;;5055369;28;20308;-76
2023/04/25 00:49:06;;;;;;;5.93;2.97;;;12.20;99.90;;;;;;5055604;28;20221;-75
2023/04/25 00:51:35;;;;;;;3.53;3.22;;;12.10;99.90;;;;;;5055537;28;20220;-76
2023/04/25 00:54:02;;;;;;;12.80;8.13;;;12.10;99.90;;;;;;5054370;28;20275;-76
2023/04/25 00:56:29;;;;;;;6.28;4.28;;;12.10;99.90;;;;;;5054833;28;20240;-76
2023/04/25 00:58:58;;;;;;;10.07;6.65;;;12.10;99.90;;;;;;5047602;28;20229;-76
2023/04/25 01:01:26;;;;;;;6.63;3.78;;;12.10;99.90;;;;;;5055677;28;20228;-77
2023/04/25 01:03:55;;;;;;;8.45;3.78;;;12.10;99.90;;;;;;5054411;28;20229;-76
2023/04/25 01:06:23;;;;;;;4.85;3.90;;;12.00;99.90;;;;;;5056284;28;20635;-76
2023/04/25 01:08:50;;;;;;;10.10;5.18;;;12.00;99.90;;;;;;5055358;28;20323;-76
2023/04/25 01:11:17;;;;;;;5.18;3.30;;;12.00;99.90;;;;;;5055817;28;20674;-76
2023/04/25 01:13:44;;;;;;;4.97;3.92;;;12.10;99.90;;;;;;5055000;28;20235;-76
2023/04/25 01:16:13;;;;;;;6.30;4.00;;;12.00;99.90;;;;;;5055002;28;20320;-76
2023/04/25 01:18:41;;;;;;;6.85;4.13;;;12.10;99.90;;;;;;5055471;28;20227;-76
2023/04/25 01:21:10;;;;;;;7.88;5.00;;;12.00;99.90;;;;;;5054746;28;20225;-76
2023/04/25 01:23:40;;;;;;;4.53;4.13;;;12.00;99.90;;;;;;5055330;28;20290;-76
2023/04/25 01:26:11;;;;;;;7.78;4.00;;;12.00;99.90;;;;;;5054829;28;20255;-76
2023/04/25 01:28:40;;;;;;;5.60;4.45;;;12.10;99.90;;;;;;5055136;28;20658;-76
2023/04/25 01:31:10;;;;;;;8.82;4.75;;;12.10;99.90;;;;;;5054035;28;20584;-76
2023/04/25 01:33:38;;;;;;;5.65;3.35;;;12.00;99.90;;;;;;5054707;28;20232;-76
2023/04/25 01:36:08;;;;;;;6.18;4.13;;;12.10;99.90;;;;;;5044059;28;20308;-76
2023/04/25 01:38:37;;;;;;;5.57;3.30;;;12.00;99.90;;;;;;5053893;28;20213;-76
2023/04/25 01:41:04;;;;;;;4.82;4.00;;;12.00;99.90;;;;;;5054025;28;20221;-75
2023/04/25 01:43:31;;;;;;;6.93;4.15;;;12.00;99.90;;;;;;5054757;28;20244;-76
2023/04/25 01:46:01;;;;;;;6.93;3.55;;;12.00;99.90;;;;;;5054370;28;20339;-77
2023/04/25 01:48:38;;;;;;;4.75;3.70;;;12.00;99.90;;;;;;5053955;28;20221;-76
2023/04/25 01:51:06;;;;;;;6.97;4.20;;;12.00;99.90;;;;;;5053823;28;20228;-76
2023/04/25 01:53:33;;;;;;;9.52;4.43;;;12.00;99.90;;;;;;5054833;28;20243;-77
2023/04/25 01:56:02;;;;;;;6.03;4.40;;;12.00;99.90;;;;;;5054281;28;20224;-76
2023/04/25 01:58:29;;;;;;;7.00;4.25;;;12.00;99.90;;;;;;5054172;28;20221;-76
2023/04/25 02:00:56;;;;;;;8.23;3.63;;;12.00;99.90;;;;;;5053600;28;20228;-77
2023/04/25 02:03:23;;;;;;;6.72;3.60;;;12.00;99.90;;;;;;5054487;28;20224;-76
2023/04/25 02:05:50;;;;;;;6.03;3.80;;;12.00;99.90;;;;;;5054724;28;20286;-76
2023/04/25 02:08:18;;;;;;;5.45;4.30;;;11.90;99.90;;;;;;5054176;28;20220;-76
2023/04/25 02:10:45;;;;;;;4.45;3.78;;;12.00;99.90;;;;;;5054676;28;20221;-76
2023/04/25 02:13:14;;;;;;;9.45;4.90;;;12.00;99.90;;;;;;5053700;28;20229;-76
2023/04/25 02:15:45;;;;;;;4.95;4.05;;;11.90;99.90;;;;;;5054126;28;20303;-76
2023/04/25 02:18:12;;;;;;;5.22;3.70;;;12.00;99.90;;;;;;5053789;28;20228;-76
2023/04/25 02:20:40;;;;;;;5.00;3.45;;;12.00;99.90;;;;;;5054658;28;20220;-76
2023/04/25 02:23:07;;;;;;;5.60;4.10;;;12.00;99.90;;;;;;5053539;28;20271;-76
2023/04/25 02:25:34;;;;;;;7.80;5.15;;;12.00;99.90;;;;;;5054608;28;20231;-76
2023/04/25 02:28:01;;;;;;;6.40;5.25;;;12.00;99.90;;;;;;5054285;28;20298;-77
2023/04/25 02:30:30;;;;;;;8.63;4.55;;;12.00;99.90;;;;;;5053249;28;20701;-76
2023/04/25 02:32:57;;;;;;;5.75;3.45;;;12.00;99.90;;;;;;5054221;28;20248;-76
2023/04/25 02:35:24;;;;;;;8.40;5.57;;;11.90;99.90;;;;;;5053973;28;20582;-76
2023/04/25 02:37:51;;;;;;;9.63;5.90;;;11.90;99.90;;;;;;5053989;28;20236;-76
2023/04/25 02:40:18;;;;;;;4.82;4.00;;;11.90;99.90;;;;;;5053479;28;20216;-76
2023/04/25 02:42:45;;;;;;;8.95;4.43;;;11.90;99.90;;;;;;5054115;28;20275;-76
2023/04/25 02:45:13;;;;;;;6.53;5.07;;;11.90;99.90;;;;;;5053996;28;20327;-75
2023/04/25 02:47:41;;;;;;;5.78;5.05;;;12.00;99.90;;;;;;5054962;28;20236;-76
2023/04/25 02:50:11;;;;;;;6.80;4.60;;;12.00;99.90;;;;;;5054106;28;20221;-76
2023/04/25 02:52:38;;;;;;;5.60;4.97;;;12.00;99.90;;;;;;5055103;28;20232;-76
2023/04/25 02:55:06;;;;;;;6.32;4.35;;;12.00;99.90;;;;;;5055813;28;20678;-75
2023/04/25 02:57:33;;;;;;;4.78;3.80;;;12.00;99.90;;;;;;5055941;28;20315;-75
2023/04/25 03:00:00;;;;;;;6.70;4.25;;;12.00;99.90;;;;;;5055042;28;20229;-76
2023/04/25 03:02:30;;;;;;;4.80;4.40;;;12.00;99.90;;;;;;5053737;28;20286;-76
2023/04/25 03:04:59;;;;;;;6.18;4.43;;;12.00;99.90;;;;;;5055817;28;20290;-76
2023/04/25 03:07:26;;;;;;;6.15;4.00;;;12.00;99.90;;;;;;5053615;28;20274;-76
2023/04/25 03:09:53;;;;;;;6.85;5.10;;;12.00;99.90;;;;;;5054840;28;20597;-76
2023/04/25 03:12:20;;;;;;;9.40;4.60;;;11.90;99.90;;;;;;5053206;28;20229;-77
2023/04/25 03:14:48;;;;;;;5.68;3.95;;;11.90;99.90;;;;;;5053543;28;20256;-75
2023/04/25 03:17:15;;;;;;;7.78;4.43;;;11.90;99.90;;;;;;5052861;28;20233;-76
2023/04/25 03:19:43;;;;;;;5.50;4.68;;;12.00;99.90;;;;;;5052896;28;20220;-75
2023/04/25 03:22:11;;;;;;;9.73;5.32;;;11.90;99.90;;;;;;5053311;28;20228;-78
2023/04/25 03:24:38;;;;;;;6.05;4.28;;;11.90;99.90;;;;;;5054158;28;20224;-77
2023/04/25 03:27:05;;;;;;;6.80;4.65;;;11.90;99.90;;;;;;5054153;28;20263;-77
2023/04/25 03:29:33;;;;;;;7.53;4.43;;;11.90;99.90;;;;;;5054659;28;20220;-77
2023/04/25 03:32:00;;;;;;;7.20;4.00;;;11.90;99.90;;;;;;5057153;28;20220;-77
2023/04/25 03:34:27;;;;;;;7.38;4.53;;;11.90;99.90;;;;;;5053842;28;20224;-77
2023/04/25 03:36:55;;;;;;;6.05;4.20;;;11.90;99.90;;;;;;5054332;28;20303;-77
2023/04/25 03:39:23;;;;;;;7.65;5.15;;;11.90;99.90;;;;;;5053106;28;20224;-78
2023/04/25 03:42:01;;;;;;;7.00;5.20;;;11.90;99.90;;;;;;5053379;28;20776;-78
2023/04/25 03:44:28;;;;;;;5.07;4.57;;;11.90;99.90;;;;;;5051788;28;20250;-77
2023/04/25 03:46:55;;;;;;;6.95;4.93;;;11.90;99.90;;;;;;5053851;28;20228;-77
2023/04/25 03:49:22;;;;;;;8.77;4.68;;;11.90;99.90;;;;;;5053525;28;20571;-77
2023/04/25 03:51:52;;;;;;;13.32;5.43;;;11.80;99.90;;;;;;5053516;28;20768;-77
2023/04/25 03:54:19;;;;;;;7.03;5.07;;;11.90;99.90;;;;;;5051756;28;20232;-77
2023/04/25 03:56:48;;;;;;;7.35;5.63;;;11.80;99.90;;;;;;5051813;28;20294;-77
2023/04/25 03:59:15;;;;;;;8.27;5.45;;;11.80;99.90;;;;;;5052273;28;20228;-75
2023/04/25 04:01:42;;;;;;;10.05;6.97;;;11.80;99.90;;;;;;5053394;28;20232;-76
2023/04/25 04:04:09;;;;;;;6.80;5.07;;;11.80;99.90;;;;;;5052439;28;20562;-76
2023/04/25 04:06:36;;;;;;;5.65;4.68;;;11.80;99.90;;;;;;5052750;28;20282;-78
2023/04/25 04:09:04;;;;;;;7.85;5.53;;;11.80;99.90;;;;;;5053009;28;20225;-76
2023/04/25 04:11:32;;;;;;;6.70;5.03;;;11.80;99.90;;;;;;5053693;28;20274;-76
2023/04/25 04:14:00;;;;;;;4.63;3.85;;;11.80;99.90;;;;;;5056645;28;20606;-76
2023/04/25 04:16:27;;;;;;;7.50;4.50;;;11.80;99.90;;;;;;5055913;28;20319;-76
2023/04/25 04:18:54;;;;;;;5.20;4.40;;;11.80;99.90;;;;;;5056664;28;20243;-76
2023/04/25 04:21:21;;;;;;;7.00;5.68;;;11.80;99.90;;;;;;5047830;28;20232;-76
2023/04/25 04:23:48;;;;;;;6.55;4.28;;;11.80;99.90;;;;;;5056827;28;20228;-76
2023/04/25 04:26:16;;;;;;;6.97;4.55;;;11.90;99.90;;;;;;5055376;28;20228;-75
2023/04/25 04:28:44;;;;;;;9.02;5.10;;;11.80;99.90;;;;;;5056315;28;20568;-75
2023/04/25 04:31:15;;;;;;;4.57;4.18;;;11.80;99.90;;;;;;5056341;28;20234;-75
2023/04/25 04:33:44;;;;;;;8.07;4.47;;;11.80;99.90;;;;;;5055920;28;20240;-76
2023/04/25 04:36:12;;;;;;;6.85;4.15;;;11.90;99.90;;;;;;5056173;28;20241;-78
2023/04/25 04:38:42;;;;;;;5.25;4.75;;;11.90;99.90;;;;;;5055157;28;20229;-76
2023/04/25 04:41:09;;;;;;;5.45;3.97;;;11.90;99.90;;;;;;5056509;28;20243;-76
2023/04/25 04:43:36;;;;;;;5.47;4.50;;;11.90;99.90;;;;;;5055428;28;20525;-75
2023/04/25 04:46:04;;;;;;;5.78;4.30;;;11.90;99.90;;;;;;5055912;28;20631;-76
2023/04/25 04:48:44;;;;;;;4.10;3.70;;;11.90;99.90;;;;;;5055705;28;20224;-76
2023/04/25 04:51:11;;;;;;;6.28;4.53;;;11.90;99.90;;;;;;5055571;28;20236;-76
2023/04/25 04:53:39;;;;;;;10.65;5.20;;;11.90;99.90;;;;;;5055490;28;20614;-76
2023/04/25 04:56:07;;;;;;;8.82;4.18;;;11.90;99.90;;;;;;5055559;28;20228;-76
2023/04/25 04:58:36;;;;;;;6.05;3.67;;;11.90;99.90;;;;;;5054876;28;20224;-76
2023/04/25 05:01:03;;;;;;;6.55;4.20;;;11.90;99.90;;;;;;5055385;28;20605;-75
2023/04/25 05:03:31;;;;;;;4.75;4.00;;;11.90;99.90;;;;;;5055237;28;20726;-76
2023/04/25 05:06:00;;;;;;;6.18;3.95;;;11.90;99.90;;;;;;5055632;28;20562;-76
2023/04/25 05:08:27;;;;;;;6.60;4.57;;;11.90;99.90;;;;;;5056583;28;20237;-76
2023/04/25 05:10:55;;;;;;;6.35;4.70;;;11.90;99.90;;;;;;5055983;28;20239;-76
2023/04/25 05:13:22;;;;;;;5.95;3.83;;;11.90;99.90;;;;;;5054834;28;20236;-77
2023/04/25 05:15:52;;;;;;;5.85;4.38;;;12.00;99.90;;;;;;5055338;28;20305;-76
2023/04/25 05:18:23;;;;;;;4.80;4.32;;;12.00;99.90;;;;;;5044583;28;20607;-76
2023/04/25 05:20:54;;;;;;;9.20;4.50;;;12.00;99.90;;;;;;5054930;28;20240;-77
2023/04/25 05:23:23;;;;;;;7.30;5.15;;;12.00;99.90;;;;;;5055176;28;20228;-77
2023/04/25 05:25:51;;;;;;;5.45;4.53;;;12.00;99.90;;;;;;5054838;28;20229;-76
2023/04/25 05:28:18;;;;;;;5.80;3.90;;;12.00;99.90;;;;;;5055152;28;20269;-76
2023/04/25 05:30:46;;;;;;;6.70;5.80;;;12.10;99.90;;;;;;5054691;28;20282;-75
2023/04/25 05:33:13;;;;;;;8.25;4.68;;;12.00;99.90;;;;;;5055523;28;20255;-76
2023/04/25 05:35:42;;;;;;;6.68;4.93;;;12.00;99.90;;;;;;5054270;28;20315;-76
2023/04/25 05:38:12;;;;;;;8.32;5.15;;;11.90;99.90;;;;;;5055272;28;20235;-77
2023/04/25 05:40:41;;;;;;;11.63;4.93;;;12.00;99.90;;;;;;5054241;28;20243;-76
2023/04/25 05:43:12;;;;;;;7.45;4.30;;;12.00;99.90;;;;;;5054736;28;20239;-76
2023/04/25 05:45:39;;;;;;;4.97;4.30;;;12.00;99.90;;;;;;5054440;28;20228;-76
2023/04/25 05:48:13;;;;;;;6.25;4.15;;;12.00;99.90;;;;;;5054861;28;20235;-76
2023/04/25 05:50:41;;;;;;;8.45;5.03;;;12.00;99.90;;;;;;5054141;28;20216;-76
2023/04/25 05:53:12;;;;;;;6.03;4.75;;;12.00;99.90;;;;;;5054363;28;20232;-76
2023/04/25 05:55:41;;;;;;;9.38;6.03;;;12.00;99.90;;;;;;5053728;28;20224;-76
2023/04/25 05:58:08;;;;;;;6.63;5.38;;;12.00;99.90;;;;;;5054566;28;20229;-76
2023/04/25 06:00:39;;;;;;;6.03;4.50;;;12.00;99.90;;;;;;5054128;28;20682;-76
2023/04/25 06:03:13;;;;;;;9.70;5.72;;;12.00;99.90;;;;;;5054271;28;20682;-76
2023/04/25 06:05:44;;;;;;;7.75;5.35;;;12.00;99.90;;;;;;5054923;28;20244;-75
2023/04/25 06:08:13;;;;;;;8.23;4.22;;;12.00;99.90;;;;;;5054779;28;20307;-76
2023/04/25 06:10:41;;;;;;;7.75;5.47;;;12.10;99.90;;;;;;5043262;28;20221;-76
2023/04/25 06:15:49;;;;;;;9.73;4.45;;;12.10;99.90;;;;;;5065176;28;20243;-77
2023/04/25 06:18:16;;;;;;;7.88;5.97;;;12.10;99.90;;;;;;5069857;28;20708;-77
2023/04/25 06:20:45;;;;;;;10.00;6.68;;;12.20;99.90;;;;;;5057481;28;20228;-78
2023/04/25 06:23:15;;;;;;;6.97;5.63;;;12.20;99.90;;;;;;5074148;28;20247;-77
2023/04/25 06:25:43;;;;;;;9.77;6.00;;;12.20;99.90;;;;;;5072157;28;20258;-77
2023/04/25 06:28:10;;;;;;;7.38;4.90;;;12.20;99.90;;;;;;5074088;28;20273;-76
2023/04/25 06:30:45;;;;;;;8.25;4.80;;;12.20;99.90;;;;;;5072967;28;20224;-76
2023/04/25 06:33:15;;;;;;;6.18;4.88;;;12.20;99.90;;;;;;5072859;28;20222;-77
2023/04/25 06:35:42;;;;;;;5.57;5.07;;;12.20;99.90;;;;;;5073725;28;20227;-76
2023/04/25 06:38:09;;;;;;;7.47;5.10;;;12.20;99.90;;;;;;5073333;28;20216;-77
2023/04/25 06:40:36;;;;;;;7.00;4.85;;;12.20;99.90;;;;;;5074043;28;20234;-76
2023/04/25 06:43:05;;;;;;;8.68;5.07;;;12.20;99.90;;;;;;5073241;28;20227;-77
2023/04/25 06:45:34;;;;;;;5.25;4.55;;;12.20;99.90;;;;;;5073493;28;20238;-77
2023/04/25 06:48:01;;;;;;;7.38;5.03;;;12.20;99.90;;;;;;5073085;28;20285;-77
2023/04/25 06:50:28;;;;;;;5.47;4.72;;;12.20;99.90;;;;;;5073659;28;20223;-77
2023/04/25 06:52:58;;;;;;;6.55;4.78;;;12.20;99.90;;;;;;5073403;28;20228;-78
2023/04/25 06:55:25;;;;;;;4.53;4.10;;;12.20;99.90;;;;;;5073301;28;20224;-77
2023/04/25 06:57:52;;;;;;;6.93;5.05;;;12.20;99.90;;;;;;5073271;28;20323;-76
2023/04/25 07:00:22;;;;;;;4.97;4.40;;;12.20;99.90;;;;;;5073365;28;20232;-77
2023/04/25 07:02:49;;;;;;;4.78;4.32;;;12.20;99.90;;;;;;5063803;28;20223;-76
2023/04/25 07:05:24;;;;;;;4.72;4.15;;;12.10;99.90;;;;;;5071739;28;20273;-77
2023/04/25 07:07:51;;;;;;;8.52;5.68;;;12.00;99.90;;;;;;5072059;28;20285;-76
2023/04/25 07:10:18;;;;;;;7.88;5.05;;;12.10;99.90;;;;;;5052753;28;20225;-77
2023/04/25 07:12:49;;;;;;;7.35;5.47;;;12.10;99.90;;;;;;5052495;28;20286;-78
2023/04/25 07:15:20;;;;;;;6.35;5.60;;;12.10;99.90;;;;;;5051995;28;20286;-77
2023/04/25 07:17:47;;;;;;;8.13;4.00;;;12.10;99.90;;;;;;5052733;28;20228;-77
2023/04/25 07:20:15;;;;;;;5.38;4.88;;;12.10;99.90;;;;;;5051569;28;20228;-77
2023/04/25 07:22:43;;;;;;;3.92;3.58;;;12.00;99.90;;;;;;5053705;28;20323;-78
2023/04/25 07:25:11;;;;;;;6.85;3.75;;;12.00;99.90;;;;;;5052809;28;20233;-78
2023/04/25 07:27:38;;;;;;;9.40;4.32;;;12.10;99.90;;;;;;5053339;28;20693;-78
2023/04/25 07:30:07;;;;;;;8.25;4.38;;;12.00;99.90;;;;;;5052064;28;20224;-76
2023/04/25 07:32:36;;;;;;;7.63;4.82;;;12.10;99.90;;;;;;5053636;28;20230;-76
2023/04/25 07:35:04;;;;;;;10.55;5.47;;;12.10;99.90;;;;;;5052279;28;20233;-77
2023/04/25 07:37:31;;;;;;;10.35;7.28;;;12.00;99.90;;;;;;5053534;28;20240;-77
2023/04/25 07:40:00;;;;;;;6.75;4.45;;;12.10;99.90;;;;;;5052979;28;20690;-77
2023/04/25 07:42:27;;;;;;;5.60;4.30;;;12.10;99.90;;;;;;5052536;28;20475;-77
2023/04/25 07:44:54;;;;;;;6.25;4.50;;;12.20;99.90;;;;;;5051599;28;20229;-77
2023/04/25 07:47:22;;;;;;;7.97;4.60;;;12.20;99.90;;;;;;5052586;28;20247;-77
2023/04/25 07:49:50;;;;;;;5.75;3.92;;;12.20;99.90;;;;;;5052975;28;20286;-77
2023/04/25 07:52:17;;;;;;;9.45;5.90;;;12.20;99.90;;;;;;5052009;28;20311;-77
2023/04/25 07:54:45;;;;;;;16.05;6.50;;;12.20;99.90;;;;;;5042459;28;20529;-77
2023/04/25 07:57:13;;;;;;;12.93;5.90;;;12.20;99.90;;;;;;5052096;28;20243;-77
2023/04/25 07:59:40;;;;;;;8.60;5.25;;;12.20;99.90;;;;;;5052964;28;20224;-77
2023/04/25 08:02:07;;;;;;;11.07;5.05;;;12.20;99.90;;;;;;5052452;28;20298;-77
2023/04/25 08:04:35;;;;;;;8.38;4.38;;;12.20;99.90;;;;;;5052442;28;20221;-77
2023/04/25 08:07:15;;;;;;;6.78;4.75;;;12.20;99.90;;;;;;5052482;28;20224;-77
2023/04/25 08:09:42;;;;;;;9.73;4.72;;;12.20;99.90;;;;;;5052649;28;20230;-77
2023/04/25 08:12:12;;;;;;;12.75;6.20;;;12.20;99.90;;;;;;5052456;28;20682;-77
2023/04/25 08:14:49;;;;;;;10.73;4.78;;;12.30;99.90;;;;;;5051825;28;20314;-77
2023/04/25 08:17:18;;;;;;;9.57;4.85;;;12.30;99.90;;;;;;5052722;28;20231;-77
2023/04/25 08:19:45;;;;;;;10.02;4.32;;;12.40;99.90;;;;;;5052498;28;20220;-77
2023/04/25 08:22:14;;;;;;;8.07;3.85;;;12.40;99.90;;;;;;5052107;28;20242;-77
2023/04/25 08:24:41;;;;;;;11.93;4.55;;;12.50;99.90;;;;;;5041535;28;20228;-77
2023/04/25 08:27:08;;;;;;;8.48;4.50;;;12.50;99.90;;;;;;5052123;28;20649;-77
2023/04/25 08:29:38;;;;;;;12.10;4.35;;;12.60;99.90;;;;;;5053430;28;20235;-78
2023/04/25 08:32:05;;;;;;;9.65;4.20;;;12.60;99.90;;;;;;5056954;28;20569;-77
2023/04/25 08:34:33;;;;;;;7.80;4.85;;;12.60;99.90;;;;;;5057442;28;20289;-77
2023/04/25 08:36:59;;;;;;;9.02;3.60;;;12.70;99.90;;;;;;5047485;28;20244;-78
2023/04/25 08:39:31;;;;;;;15.45;6.00;;;12.70;99.90;;;;;;5056508;28;20225;-77
2023/04/25 08:41:58;;;;;;;6.65;3.70;;;12.60;99.90;;;;;;5029790;28;20216;-78
2023/04/25 08:44:26;;;;;;;7.30;4.50;;;12.70;99.90;;;;;;5056309;28;20646;-77
2023/04/25 08:46:53;;;;;;;7.93;4.25;;;12.80;99.90;;;;;;5051242;28;20248;-78
2023/04/25 08:49:20;;;;;;;7.45;4.72;;;12.80;99.90;;;;;;5053141;28;20709;-76
2023/04/25 08:51:50;;;;;;;12.52;7.60;;;12.80;99.90;;;;;;5052796;28;20224;-76
2023/04/25 08:54:17;;;;;;;10.20;4.50;;;12.90;99.90;;;;;;5054107;28;20232;-76
2023/04/25 08:56:48;;;;;;;13.90;5.03;;;13.00;99.90;;;;;;5052432;28;20235;-76
2023/04/25 08:59:15;;;;;;;12.10;4.95;;;13.00;99.80;;;;;;5056482;28;20225;-76
2023/04/25 09:01:42;;;;;;;5.45;3.17;;;13.10;99.20;;;;;;5056415;28;20212;-76
2023/04/25 09:04:09;;;;;;;7.57;3.30;;;13.20;98.70;;;;;;5056959;28;20248;-76
2023/04/25 09:06:36;;;;;;;8.48;3.33;;;13.20;98.00;;;;;;5056381;28;20475;-76
2023/04/25 09:09:05;;;;;;;13.18;6.80;;;13.30;98.00;;;;;;5055965;28;20270;-76
2023/04/25 09:11:33;;;;;;;9.80;4.68;;;13.40;97.50;;;;;;5056128;28;20247;-76
2023/04/25 09:14:15;;;;;;;6.45;3.80;;;13.50;96.70;;;;;;5056082;28;20252;-76
2023/04/25 09:17:04;;;;;;;8.88;3.88;;;13.50;96.30;;;;;;5055411;28;20235;-77
2023/04/25 09:19:32;;;;;;;10.05;4.00;;;13.60;94.90;;;;;;5056529;28;20303;-76
2023/04/25 09:22:02;;;;;;;7.57;4.85;;;13.70;94.70;;;;;;5056184;28;20236;-76
2023/04/25 09:24:36;;;;;;;9.00;4.07;;;13.80;94.50;;;;;;5056187;28;20248;-76
2023/04/25 09:27:07;;;;;;;8.50;4.15;;;13.90;93.80;;;;;;5055194;28;20230;-76
2023/04/25 09:29:40;;;;;;;12.60;4.77;;;13.90;93.40;;;;;;5056074;28;20300;-76
2023/04/25 09:32:18;;;;;;;7.50;3.70;;;14.00;93.20;;;;;;5056621;28;20799;-76
2023/04/25 09:34:50;;;;;;;8.20;4.10;;;14.10;93.10;;;;;;5056845;28;20475;-76
2023/04/25 09:37:21;;;;;;;8.13;3.03;;;14.20;92.80;;;;;;5055634;28;21024;-77
2023/04/25 09:39:50;;;;;;;9.93;4.70;;;14.20;91.90;;;;;;5055155;28;20821;-77
2023/04/25 09:42:18;;;;;;;11.43;3.97;;;14.20;92.10;;;;;;5055145;28;20996;-77
2023/04/25 09:44:47;;;;;;;5.30;3.03;;;14.10;91.60;;;;;;5055229;28;20697;-76
2023/04/25 09:47:17;;;;;;;8.60;3.90;;;14.10;91.10;;;;;;5055669;28;20463;-76
2023/04/25 09:49:45;;;;;;;7.43;3.40;;;14.10;90.70;;;;;;5055358;28;20467;-76
2023/04/25 09:52:17;;;;;;;9.33;3.37;;;14.00;90.20;;;;;;5055373;28;20455;-77
2023/04/25 09:54:44;;;;;;;8.40;3.37;;;13.90;89.00;;;;;;5054976;28;20485;-76
2023/04/25 09:57:13;;;;;;;10.53;3.40;;;13.90;88.40;;;;;;5054267;28;20463;-76
2023/04/25 09:59:44;;;;;;;7.03;2.50;;;13.90;87.50;;;;;;5055197;28;20495;-76
2023/04/25 10:02:14;;;;;;;5.60;2.92;;;13.80;87.40;;;;;;5054383;28;20467;-76
2023/04/25 10:04:42;;;;;;;4.05;3.50;;;13.80;87.20;;;;;;5055111;28;20569;-76
2023/04/25 10:07:10;;;;;;;6.53;3.53;;;13.90;87.20;;;;;;5054321;28;20235;-76
2023/04/25 10:09:39;;;;;;;6.95;2.58;;;13.80;86.40;;;;;;5053752;28;20665;-76
2023/04/25 10:12:09;;;;;;;6.47;2.22;;;13.80;86.10;;;;;;5054480;28;20240;-76
2023/04/25 10:14:37;;;;;;;6.40;3.30;;;13.90;85.40;;;;;;5054586;28;20267;-77
2023/04/25 10:17:04;;;;;;;8.30;3.35;;;13.90;84.80;;;;;;5054278;28;20240;-76
2023/04/25 10:19:33;;;;;;;5.15;4.20;;;13.90;84.90;;;;;;5054706;28;20687;-76
2023/04/25 10:22:08;;;;;;;12.07;5.43;;;14.00;84.60;;;;;;5054298;28;20574;-76
2023/04/25 10:24:38;;;;;;;19.83;7.65;;;14.00;83.80;;;;;;5055052;28;20889;-77
2023/04/25 10:27:06;;;;;;;5.83;3.50;;;14.00;83.10;;;;;;5053257;28;20667;-77
2023/04/25 10:29:33;;;;;;;7.50;3.30;;;14.00;82.60;;;;;;5054840;28;20986;-77
2023/04/25 10:32:01;;;;;;;7.43;2.90;;;14.10;82.10;;;;;;5054122;28;20533;-77
2023/04/25 10:34:46;;;;;;;10.40;3.30;;;14.10;81.80;;;;;;5053814;28;20471;-77
2023/04/25 10:37:14;;;;;;;5.78;3.60;;;14.00;80.50;;;;;;5053544;28;20465;-77
2023/04/25 10:39:43;;;;;;;6.40;2.80;;;14.00;80.30;;;;;;5054510;28;20331;-77
2023/04/25 10:42:10;;;;;;;6.00;2.97;;;13.90;80.20;;;;;;5052907;28;20482;-77
2023/04/25 10:44:39;;;;;;;6.13;3.75;;;13.90;80.80;;;;;;5053367;28;20498;-77
2023/04/25 10:47:09;;;;;;;5.95;3.47;;;13.90;80.90;;;;;;5053955;28;20294;-77
2023/04/25 10:49:37;;;;;;;5.53;2.57;;;14.00;81.00;;;;;;5054661;28;20327;-77
2023/04/25 10:52:20;;;;;;;6.07;4.00;;;14.00;81.00;;;;;;5053546;28;20490;-77
2023/04/25 10:54:55;;;;;;;5.65;3.67;;;14.00;80.40;;;;;;5054363;28;20843;-77
2023/04/25 10:57:39;;;;;;;8.27;3.80;;;14.10;79.80;;;;;;5054075;28;20231;-77
2023/04/25 11:00:10;;;;;;;5.90;3.35;;;14.10;79.00;;;;;;5053604;28;20471;-77
2023/04/25 11:02:46;;;;;;;4.93;2.90;;;14.10;77.90;;;;;;5045519;28;20566;-77
2023/04/25 11:05:22;;;;;;;5.20;3.30;;;14.10;77.50;;;;;;5053406;28;20494;-77
2023/04/25 11:07:54;;;;;;;6.53;2.80;;;14.10;77.00;;;;;;5054089;28;20474;-77
2023/04/25 11:10:21;;;;;;;4.80;2.57;;;14.20;76.70;;;;;;5053345;28;20474;-77
2023/04/25 11:12:48;;;;;;;5.13;3.27;;;14.30;76.50;;;;;;5053569;28;20914;-77
2023/04/25 11:15:15;;;;;;;6.40;2.73;;;14.20;77.00;;;;;;5052792;28;20475;-77
2023/04/25 11:17:47;;;;;;;6.53;2.60;;;14.20;76.10;;;;;;5053490;28;20537;-77
2023/04/25 11:20:15;;;;;;;7.00;3.72;;;14.10;76.10;;;;;;5052452;28;20475;-77
2023/04/25 11:22:43;;;;;;;7.70;2.87;;;13.90;76.50;;;;;;5054283;28;20221;-77
2023/04/25 11:25:13;;;;;;;5.68;3.22;;;13.90;76.60;;;;;;5052999;28;20475;-76
2023/04/25 11:27:50;;;;;;;6.90;3.30;;;13.80;76.00;;;;;;5053518;28;20252;-77
2023/04/25 11:30:18;;;;;;;4.90;2.53;;;13.70;75.40;;;;;;5052948;28;20477;-77
2023/04/25 11:32:45;;;;;;;8.82;2.65;;;13.60;75.00;;;;;;5053678;28;20231;-76
2023/04/25 11:35:13;;;;;;;13.18;4.35;;;13.50;75.20;;;;;;5052769;28;20681;-76
2023/04/25 11:37:40;;;;;;;4.30;2.80;;;13.50;74.50;;;;;;5054552;28;20246;-76
2023/04/25 11:40:09;;;;;;;10.20;3.15;;;13.50;74.60;;;;;;5068514;28;20223;-75
2023/04/25 11:42:50;;;;;;;4.80;2.20;;;13.60;74.00;;;;;;5071299;28;20223;-76
2023/04/25 11:45:18;;;;;;;2.87;2.27;;;13.50;73.70;;;;;;5071747;28;20239;-76
2023/04/25 11:47:46;;;;;;;5.07;2.78;;;13.50;73.90;;;;;;5071820;28;20490;-77
2023/04/25 11:50:14;;;;;;;5.35;2.53;;;13.50;72.90;;;;;;5068689;28;20220;-76
2023/04/25 11:52:43;;;;;;;9.35;2.90;;;13.60;73.20;;;;;;5072184;28;20250;-76
2023/04/25 11:55:11;;;;;;;6.67;2.93;;;13.60;73.30;;;;;;5071275;28;20220;-76
2023/04/25 11:57:41;;;;;;;6.67;3.50;;;13.70;73.30;;;;;;5061887;28;20502;-76
2023/04/25 12:00:12;;;;;;;2.53;2.10;;;13.80;73.50;;;;;;5065176;28;20490;-76
2023/04/25 12:02:42;;;;;;;3.90;2.33;;;13.80;73.70;;;;;;5071471;28;20466;-77
2023/04/25 12:05:10;;;;;;;4.05;2.80;;;13.80;73.70;;;;;;5071335;28;20475;-76
2023/04/25 12:07:38;;;;;;;3.80;2.30;;;13.80;72.30;;;;;;5071891;28;20266;-76
2023/04/25 12:10:07;;;;;;;5.43;2.40;;;13.90;74.10;;;;;;5071850;28;20485;-76
2023/04/25 12:12:35;;;;;;;4.73;2.40;;;13.90;73.20;;;;;;5070857;28;20537;-77
2023/04/25 12:15:12;;;;;;;9.93;2.87;;;14.00;73.40;;;;;;5068973;28;20472;-76
2023/04/25 12:17:40;;;;;;;4.63;2.70;;;14.00;72.90;;;;;;5069339;28;20811;-77
2023/04/25 12:20:09;;;;;;;3.53;2.40;;;14.00;73.20;;;;;;5071854;28;20524;-78
2023/04/25 12:22:37;;;;;;;7.00;3.17;;;14.00;73.10;;;;;;5060877;28;21620;-77
2023/04/25 12:25:05;;;;;;;6.57;2.72;;;14.00;72.60;;;;;;5067278;28;20473;-76
2023/04/25 12:27:33;;;;;;;5.17;2.70;;;13.90;71.70;;;;;;5067856;28;20219;-76
2023/04/25 12:30:01;;;;;;;5.63;2.53;;;13.90;71.80;;;;;;5069063;28;20450;-76
2023/04/25 12:32:29;;;;;;;7.63;3.27;;;13.90;71.20;;;;;;5072485;28;20459;-76
2023/04/25 12:34:57;;;;;;;3.77;2.80;;;14.00;71.30;;;;;;5075498;28;20761;-75
2023/04/25 12:37:24;;;;;;;7.93;2.30;;;13.90;71.20;;;;;;5073847;28;20490;-76
2023/04/25 12:39:51;;;;;;;5.13;2.25;;;14.00;71.10;;;;;;5075615;28;20478;-76
2023/04/25 12:42:18;;;;;;;7.07;2.83;;;14.00;71.30;;;;;;5068965;28;20226;-77
2023/04/25 12:44:46;;;;;;;6.45;3.25;;;14.00;70.90;;;;;;5060832;28;20523;-76
2023/04/25 12:47:13;;;;;;;7.70;2.70;;;13.90;70.40;;;;;;5075777;28;20216;-77
2023/04/25 12:49:44;;;;;;;7.80;3.00;;;14.00;70.40;;;;;;5073127;28;20477;-77
2023/04/25 12:52:13;;;;;;;4.83;2.63;;;14.00;70.60;;;;;;5073821;28;20216;-77
2023/04/25 12:54:41;;;;;;;10.63;3.37;;;14.10;70.50;;;;;;5074544;28;20462;-76
2023/04/25 12:57:08;;;;;;;5.17;2.60;;;14.10;70.10;;;;;;5066972;28;20839;-77